Time;durP1;ratioP1;P1;durP2;ratioP2;P2;SDS_P1;SDS_P2;PMS_P1;PMS_P2;Temp;Humidity;BMP_temperature;BMP_pressure;BME280_temperature;BME280_humidity;BME280_pressure;Samples;Min_cycle;Max_cycle;Signal;HPM_P1;HPM_P2
2022/07/13 00:02:01;;;;;;;1.00;1.00;;;;;;;15.24;57.83;63570.41;5069341;28;20222;-75
2022/07/13 00:04:28;;;;;;;1.30;0.95;;;;;;;15.22;57.93;63572.94;5079871;28;20193;-74
2022/07/13 00:06:55;;;;;;;0.80;0.80;;;;;;;15.19;58.06;63572.91;5071205;28;20238;-75
2022/07/13 00:09:23;;;;;;;0.88;0.88;;;;;;;15.18;58.04;63564.19;5084514;28;20196;-76
2022/07/13 00:11:50;;;;;;;4.57;1.30;;;;;;;15.15;58.59;63566.19;5084147;28;20220;-76
2022/07/13 00:14:17;;;;;;;3.85;0.90;;;;;;;15.16;58.47;63559.53;5101017;28;20234;-75
2022/07/13 00:16:45;;;;;;;3.97;0.98;;;;;;;15.21;58.22;63575.00;5097417;28;20209;-76
2022/07/13 00:19:12;;;;;;;0.90;0.90;;;;;;;15.12;58.85;63563.06;5084085;28;20196;-76
2022/07/13 00:21:39;;;;;;;1.40;1.00;;;;;;;14.99;59.13;63547.00;5083421;28;20216;-75
2022/07/13 00:24:06;;;;;;;0.80;0.80;;;;;;;15.03;60.16;63548.59;5083586;28;20256;-74
2022/07/13 00:26:35;;;;;;;0.90;0.90;;;;;;;14.94;60.71;63544.38;5083647;28;20228;-75
2022/07/13 00:29:01;;;;;;;1.83;1.00;;;;;;;14.89;60.79;63536.63;5083395;28;20197;-76
2022/07/13 00:31:28;;;;;;;2.78;1.08;;;;;;;14.88;60.74;63541.22;5083461;28;20404;-75
2022/07/13 00:33:55;;;;;;;2.80;0.90;;;;;;;14.82;60.18;63529.34;5083329;28;20238;-76
2022/07/13 00:36:22;;;;;;;1.85;1.00;;;;;;;14.89;59.97;63536.63;5083628;28;20232;-77
2022/07/13 00:38:49;;;;;;;1.73;1.00;;;;;;;14.85;60.15;63532.97;5083380;28;20208;-76
2022/07/13 00:41:16;;;;;;;1.02;1.02;;;;;;;14.83;60.53;63527.81;5082943;28;20223;-76
2022/07/13 00:43:45;;;;;;;0.73;0.73;;;;;;;14.81;60.24;63533.94;5083257;28;20211;-75
2022/07/13 00:46:13;;;;;;;0.95;0.85;;;;;;;14.81;59.89;63528.81;5086416;28;20224;-76
2022/07/13 00:48:41;;;;;;;4.05;1.25;;;;;;;14.83;59.88;63536.03;5086921;28;20189;-76
2022/07/13 00:51:08;;;;;;;1.13;1.10;;;;;;;14.81;60.24;63533.44;5086940;28;20266;-76
2022/07/13 00:53:38;;;;;;;1.00;1.00;;;;;;;14.77;60.50;63526.72;5087090;28;20263;-75
2022/07/13 00:56:07;;;;;;;0.90;0.90;;;;;;;14.78;61.29;63528.28;5086799;28;20541;-75
2022/07/13 00:58:34;;;;;;;1.23;1.00;;;;;;;14.70;61.67;63522.50;5087344;28;20192;-75
2022/07/13 01:01:02;;;;;;;3.17;0.80;;;;;;;14.67;61.76;63516.31;5091476;28;20216;-75
2022/07/13 01:03:29;;;;;;;1.77;1.02;;;;;;;14.68;61.41;63514.81;5093617;28;20196;-75
2022/07/13 01:05:55;;;;;;;1.02;0.95;;;;;;;14.68;61.12;63515.31;5080117;28;20293;-75
2022/07/13 01:08:23;;;;;;;1.45;0.68;;;;;;;14.60;63.06;63512.13;5095777;28;20196;-75
2022/07/13 01:10:50;;;;;;;1.48;1.15;;;;;;;14.50;63.26;63496.09;5096562;28;21254;-76
2022/07/13 01:13:18;;;;;;;0.70;0.70;;;;;;;14.43;62.79;63491.38;5093759;28;20224;-76
2022/07/13 01:15:45;;;;;;;0.75;0.70;;;;;;;14.41;61.41;63486.75;5092154;28;20457;-76
2022/07/13 01:18:15;;;;;;;1.73;0.95;;;;;;;14.40;60.99;63491.38;5091998;28;20208;-75
2022/07/13 01:20:43;;;;;;;0.60;0.60;;;;;;;14.38;61.55;63481.59;5087461;28;20219;-75
2022/07/13 01:23:14;;;;;;;0.80;0.80;;;;;;;14.40;62.97;63491.38;5086742;28;20200;-75
2022/07/13 01:25:42;;;;;;;1.00;1.00;;;;;;;14.37;63.48;63485.69;5086411;28;20213;-75
2022/07/13 01:28:09;;;;;;;1.10;1.00;;;;;;;14.32;64.36;63479.97;5086366;28;20201;-75
2022/07/13 01:30:36;;;;;;;1.05;0.93;;;;;;;14.26;64.57;63474.25;5085620;28;20231;-76
2022/07/13 01:33:03;;;;;;;1.05;1.00;;;;;;;14.19;64.61;63469.00;5085410;28;20193;-76
2022/07/13 01:35:31;;;;;;;0.85;0.85;;;;;;;14.15;65.54;63457.69;5086367;28;20228;-76
2022/07/13 01:37:59;;;;;;;0.73;0.73;;;;;;;14.09;66.15;63451.47;5085868;28;20272;-76
2022/07/13 01:40:28;;;;;;;0.95;0.88;;;;;;;14.08;65.49;63452.47;5085662;28;20230;-76
2022/07/13 01:42:55;;;;;;;1.55;1.50;;;;;;;14.03;66.05;63449.84;5085851;28;20214;-76
2022/07/13 01:45:24;;;;;;;1.30;1.17;;;;;;;14.05;65.54;63454.47;5087305;28;20246;-76
2022/07/13 01:47:53;;;;;;;1.08;1.00;;;;;;;14.02;67.83;63446.75;5086148;28;20193;-76
2022/07/13 01:50:22;;;;;;;1.08;0.90;;;;;;;13.94;67.69;63433.84;5085096;28;20251;-75
2022/07/13 01:52:50;;;;;;;3.75;1.10;;;;;;;13.90;66.85;63437.38;5085150;28;20234;-76
2022/07/13 01:55:17;;;;;;;1.67;0.77;;;;;;;13.91;66.80;63435.34;5084891;28;20232;-75
2022/07/13 01:57:46;;;;;;;1.00;0.90;;;;;;;13.78;67.06;63424.94;5085559;28;20413;-77
2022/07/13 02:00:16;;;;;;;1.48;0.85;;;;;;;13.79;67.93;63420.84;5084714;28;20185;-76
2022/07/13 02:02:44;;;;;;;1.10;1.05;;;;;;;13.72;68.50;63416.13;5085492;28;20185;-76
2022/07/13 02:05:12;;;;;;;1.05;0.95;;;;;;;13.73;67.64;63419.75;5085369;28;20383;-76
2022/07/13 02:07:39;;;;;;;0.98;0.70;;;;;;;13.71;67.93;63412.53;5084993;28;20192;-75
2022/07/13 02:10:07;;;;;;;1.00;1.00;;;;;;;13.74;68.04;63413.09;5085320;28;20261;-75
2022/07/13 02:12:35;;;;;;;1.00;1.00;;;;;;;13.65;68.35;63408.88;5085296;28;20238;-75
2022/07/13 02:15:03;;;;;;;2.10;0.77;;;;;;;13.67;68.01;63408.38;5085262;28;20236;-76
2022/07/13 02:17:30;;;;;;;3.50;1.25;;;;;;;13.58;67.89;63403.66;5084753;28;20436;-75
2022/07/13 02:19:57;;;;;;;1.85;1.10;;;;;;;13.65;67.98;63406.31;5085276;28;20441;-75
2022/07/13 02:22:25;;;;;;;0.73;0.73;;;;;;;13.64;67.62;63410.41;5084188;28;20258;-76
2022/07/13 02:24:51;;;;;;;0.77;0.77;;;;;;;13.64;67.67;63405.28;5084751;28;20279;-76
2022/07/13 02:27:18;;;;;;;1.92;0.77;;;;;;;13.60;66.26;63401.13;5072344;28;20254;-76
2022/07/13 02:29:45;;;;;;;2.05;0.80;;;;;;;13.59;66.63;63405.22;5078572;28;20239;-75
2022/07/13 02:32:14;;;;;;;2.20;1.05;;;;;;;13.62;66.96;63405.22;5084819;28;20216;-76
2022/07/13 02:34:41;;;;;;;1.98;0.98;;;;;;;13.61;67.65;63404.72;5085908;28;20397;-76
2022/07/13 02:37:11;;;;;;;2.03;0.80;;;;;;;13.62;68.71;63402.69;5084924;28;20227;-76
2022/07/13 02:39:38;;;;;;;4.78;1.00;;;;;;;13.62;68.51;63410.34;5085272;28;20189;-75
2022/07/13 02:42:05;;;;;;;1.40;0.82;;;;;;;13.66;67.20;63406.84;5084588;28;20255;-76
2022/07/13 02:44:32;;;;;;;1.95;1.08;;;;;;;13.69;67.03;63412.50;5085081;28;20200;-75
2022/07/13 02:46:59;;;;;;;0.77;0.77;;;;;;;13.70;67.20;63411.50;5084953;28;20220;-75
2022/07/13 02:49:28;;;;;;;1.17;0.80;;;;;;;13.65;66.92;63410.91;5089704;28;20199;-76
2022/07/13 02:51:55;;;;;;;1.50;0.82;;;;;;;13.65;66.35;63408.88;5104987;28;20234;-76
2022/07/13 02:54:22;;;;;;;3.90;0.90;;;;;;;13.75;65.94;63418.75;5105280;28;20585;-76
2022/07/13 02:56:48;;;;;;;1.75;0.70;;;;;;;13.74;65.31;63415.66;5099187;28;20405;-75
2022/07/13 02:59:15;;;;;;;0.90;0.90;;;;;;;13.79;65.36;63420.84;5084482;28;20272;-75
2022/07/13 03:01:42;;;;;;;39.92;25.73;;;;;;;13.84;65.43;63433.72;5085391;28;20247;-75
2022/07/13 03:04:10;;;;;;;2.10;1.30;;;;;;;13.88;64.55;63437.88;5083613;28;20201;-77
2022/07/13 03:06:38;;;;;;;1.13;0.70;;;;;;;13.86;64.57;63427.59;5064330;28;20221;-75
2022/07/13 03:09:05;;;;;;;1.05;1.05;;;;;;;13.94;64.17;63435.91;5082208;28;20196;-75
2022/07/13 03:11:32;;;;;;;1.00;1.00;;;;;;;13.89;64.58;63433.28;5084524;28;20216;-75
2022/07/13 03:13:59;;;;;;;1.55;0.77;;;;;;;13.89;64.40;63433.78;5084015;28;20228;-76
2022/07/13 03:16:26;;;;;;;54.97;33.35;;;;;;;13.93;65.07;63437.94;5084719;28;20220;-75
2022/07/13 03:18:52;;;;;;;4.20;3.80;;;;;;;14.02;65.10;63448.78;5085063;28;20323;-75
2022/07/13 03:21:20;;;;;;;3.25;1.00;;;;;;;14.02;66.35;63446.75;5085482;28;20228;-75
2022/07/13 03:23:48;;;;;;;0.90;0.90;;;;;;;14.09;64.65;63453.50;5085477;28;20197;-75
2022/07/13 03:26:15;;;;;;;2.05;1.20;;;;;;;14.00;65.96;63444.69;5081171;28;20220;-74
2022/07/13 03:28:42;;;;;;;2.22;2.00;;;;;;;13.97;68.17;63446.69;5081266;28;20204;-75
2022/07/13 03:31:09;;;;;;;7.93;5.88;;;;;;;13.93;68.71;63439.97;5091085;28;20251;-76
2022/07/13 03:33:36;;;;;;;4.85;3.13;;;;;;;14.00;68.95;63444.69;5073972;28;20264;-76
2022/07/13 03:36:03;;;;;;;1.17;1.10;;;;;;;13.99;68.55;63448.25;5073525;28;20280;-74
2022/07/13 03:38:31;;;;;;;1.35;1.13;;;;;;;13.95;69.87;63436.94;5078446;28;20189;-76
2022/07/13 03:40:59;;;;;;;3.15;1.60;;;;;;;14.03;70.34;63449.84;5080700;28;20225;-77
2022/07/13 03:43:26;;;;;;;72.45;43.33;;;;;;;14.04;69.72;63448.84;5087737;28;20203;-76
2022/07/13 03:45:53;;;;;;;3.05;2.35;;;;;;;14.06;69.49;63452.94;5079630;28;20248;-75
2022/07/13 03:48:20;;;;;;;1.33;1.33;;;;;;;14.16;68.98;63458.75;5085083;28;20351;-75
2022/07/13 03:50:48;;;;;;;1.27;1.20;;;;;;;14.21;68.94;63468.53;5101388;28;20262;-75
2022/07/13 03:53:15;;;;;;;3.30;0.90;;;;;;;14.30;68.54;63473.28;5104168;28;20222;-76
2022/07/13 03:55:43;;;;;;;2.63;1.40;;;;;;;14.36;68.56;63484.63;5103457;28;20231;-76
2022/07/13 03:58:12;;;;;;;2.38;2.28;;;;;;;14.48;67.22;63494.53;5109549;28;20203;-76
2022/07/13 04:00:40;;;;;;;2.47;1.92;;;;;;;14.63;66.72;63510.13;5093737;28;20221;-76
2022/07/13 04:03:07;;;;;;;1.63;1.52;;;;;;;14.77;65.38;63524.66;5087675;28;20203;-76
2022/07/13 04:05:46;;;;;;;1.88;1.77;;;;;;;14.85;65.95;63530.41;5086290;28;20275;-76
2022/07/13 04:08:13;;;;;;;2.92;1.30;;;;;;;15.04;65.62;63550.16;5090572;28;20189;-76
2022/07/13 04:10:40;;;;;;;1.20;1.20;;;;;;;15.21;64.82;63569.88;5090949;28;20261;-76
2022/07/13 04:13:07;;;;;;;1.38;1.27;;;;;;;15.23;65.16;63571.41;5084824;28;20219;-76
2022/07/13 04:15:35;;;;;;;3.70;1.23;;;;;;;15.23;64.79;63571.41;5084786;28;20235;-75
2022/07/13 04:18:02;;;;;;;1.95;1.85;;;;;;;15.24;65.00;63570.41;5084597;28;20184;-75
2022/07/13 04:20:29;;;;;;;2.58;1.50;;;;;;;15.28;66.12;63574.56;5087698;28;20221;-75
2022/07/13 04:22:56;;;;;;;1.60;1.50;;;;;;;15.29;69.37;63577.66;5086751;28;20204;-76
2022/07/13 04:25:23;;;;;;;1.98;1.83;;;;;;;15.28;69.10;63577.13;5086996;28;20201;-76
2022/07/13 04:27:50;;;;;;;6.15;2.33;;;;;;;15.37;66.96;63589.06;5087096;28;20294;-75
2022/07/13 04:30:17;;;;;;;3.47;1.98;;;;;;;15.38;67.97;63592.13;5087382;28;20374;-76
2022/07/13 04:32:45;;;;;;;3.05;1.98;;;;;;;15.42;68.67;63591.72;5088139;28;20207;-76
2022/07/13 04:35:12;;;;;;;4.00;2.00;;;;;;;15.47;70.23;63591.25;5087169;28;20228;-77
2022/07/13 04:37:39;;;;;;;6.38;2.15;;;;;;;15.49;70.58;63601.03;5087014;28;20207;-76
2022/07/13 04:40:07;;;;;;;5.43;2.75;;;;;;;15.22;74.09;63567.81;5087696;28;20197;-74
2022/07/13 04:42:34;;;;;;;7.68;2.47;;;;;;;15.18;74.18;63571.88;5087071;28;20193;-76
2022/07/13 04:45:01;;;;;;;4.18;2.17;;;;;;;15.28;71.45;63577.13;5086626;28;20193;-75
2022/07/13 04:47:27;;;;;;;3.45;2.40;;;;;;;15.17;76.28;63565.69;5086728;28;20271;-77
2022/07/13 04:49:56;;;;;;;6.72;2.95;;;;;;;15.31;74.14;63582.81;5096284;28;20239;-75
2022/07/13 04:52:31;;;;;;;4.18;3.00;;;;;;;15.20;74.40;63570.88;5111517;28;20226;-75
2022/07/13 04:55:03;;;;;;;6.97;3.45;;;;;;;15.18;76.51;63566.75;5115030;28;20212;-77
2022/07/13 04:57:30;;;;;;;8.98;3.13;;;;;;;15.23;76.39;63571.94;5115266;28;20453;-76
2022/07/13 04:59:57;;;;;;;3.17;2.88;;;;;;;15.26;74.67;63571.97;5091719;28;20501;-77
2022/07/13 05:02:24;;;;;;;3.10;2.50;;;;;;;15.47;76.29;63598.94;5087069;28;20277;-76
2022/07/13 05:04:51;;;;;;;3.15;2.90;;;;;;;15.52;75.99;63599.53;5086055;28;20207;-76
2022/07/13 05:07:19;;;;;;;10.00;2.50;;;;;;;15.65;72.70;63618.19;5086957;28;20220;-75
2022/07/13 05:09:46;;;;;;;8.35;2.67;;;;;;;15.62;72.62;63611.97;5086892;28;20202;-75
2022/07/13 05:12:13;;;;;;;4.20;2.90;;;;;;;15.68;76.64;63618.22;5086354;28;20223;-76
2022/07/13 05:14:40;;;;;;;3.60;3.28;;;;;;;15.85;74.26;63636.41;5086181;28;20220;-76
2022/07/13 05:17:07;;;;;;;4.68;3.17;;;;;;;16.10;73.45;63661.91;5085776;28;20212;-76
2022/07/13 05:19:34;;;;;;;6.13;2.80;;;;;;;16.13;71.51;63665.00;5086304;28;20198;-75
2022/07/13 05:22:01;;;;;;;5.28;2.65;;;;;;;16.29;70.94;63681.66;5084477;28;20224;-76
2022/07/13 05:24:29;;;;;;;6.50;3.22;;;;;;;16.41;71.16;63696.69;5067140;28;20250;-75
2022/07/13 05:26:57;;;;;;;3.22;3.03;;;;;;;16.33;71.55;63688.38;5086861;28;20216;-75
2022/07/13 05:29:24;;;;;;;5.00;2.85;;;;;;;16.68;69.77;63721.72;5087766;28;20287;-75
2022/07/13 05:31:51;;;;;;;3.28;2.97;;;;;;;16.83;68.52;63739.91;5080874;28;20224;-75
2022/07/13 05:34:18;;;;;;;3.97;2.85;;;;;;;16.75;67.96;63726.97;5072360;28;20291;-75
2022/07/13 05:36:45;;;;;;;3.78;3.00;;;;;;;16.84;66.61;63736.31;5069979;28;20389;-75
2022/07/13 05:39:12;;;;;;;7.25;3.00;;;;;;;16.84;67.63;63738.88;5083630;28;20193;-75
2022/07/13 05:41:40;;;;;;;4.32;3.20;;;;;;;16.96;67.31;63751.38;5071262;28;20217;-76
2022/07/13 05:44:07;;;;;;;4.60;3.08;;;;;;;17.20;66.75;63775.84;5066135;28;20193;-76
2022/07/13 05:46:33;;;;;;;5.82;3.10;;;;;;;17.08;65.35;63760.78;5076392;28;20322;-74
2022/07/13 05:49:00;;;;;;;4.28;2.35;;;;;;;17.18;64.60;63771.72;5086184;28;20196;-75
2022/07/13 05:51:28;;;;;;;7.57;3.10;;;;;;;17.21;65.16;63782.56;5069497;28;20238;-74
2022/07/13 05:53:55;;;;;;;3.38;2.08;;;;;;;17.17;62.74;63775.31;5066618;28;20231;-75
2022/07/13 05:56:22;;;;;;;6.30;2.05;;;;;;;17.35;60.53;63791.47;5070175;28;20220;-75
2022/07/13 05:58:50;;;;;;;1.75;1.27;;;;;;;17.53;55.81;63809.69;5085252;28;20496;-75
2022/07/13 06:01:17;;;;;;;6.03;1.13;;;;;;;17.65;54.09;63825.31;5069958;28;20220;-76
2022/07/13 06:03:44;;;;;;;1.08;1.00;;;;;;;17.86;52.70;63844.56;5085611;28;20206;-75
2022/07/13 06:06:10;;;;;;;5.35;1.48;;;;;;;17.94;53.55;63858.06;5097443;28;20223;-74
2022/07/13 06:08:38;;;;;;;1.33;1.08;;;;;;;18.13;52.64;63877.34;5095467;28;20203;-76
2022/07/13 06:11:05;;;;;;;1.02;0.93;;;;;;;18.10;52.63;63869.56;5092579;28;20216;-76
2022/07/13 06:13:32;;;;;;;1.92;1.27;;;;;;;17.90;52.14;63848.75;5089442;28;20196;-75
2022/07/13 06:16:01;;;;;;;2.13;0.95;;;;;;;17.94;51.25;63852.41;5086380;28;20281;-76
2022/07/13 06:18:28;;;;;;;1.20;1.10;;;;;;;18.03;50.56;63862.28;5088014;28;20238;-77
2022/07/13 06:20:55;;;;;;;3.00;0.77;;;;;;;18.26;51.42;63888.31;5088391;28;20228;-77
2022/07/13 06:23:23;;;;;;;2.72;1.15;;;;;;;18.02;51.25;63863.31;5085891;28;20200;-75
2022/07/13 06:25:50;;;;;;;1.20;1.20;;;;;;;17.86;51.59;63847.16;5084685;28;20443;-75
2022/07/13 06:28:17;;;;;;;2.40;1.00;;;;;;;18.04;50.70;63865.91;5072654;28;20199;-76
2022/07/13 06:30:45;;;;;;;1.95;0.85;;;;;;;18.04;51.37;63860.75;5086866;28;20216;-76
2022/07/13 06:33:13;;;;;;;2.60;1.23;;;;;;;18.32;51.98;63894.56;5089334;28;20412;-75
2022/07/13 06:35:40;;;;;;;0.70;0.60;;;;;;;18.58;50.71;63918.56;5080355;28;20228;-77
2022/07/13 06:38:08;;;;;;;2.60;1.48;;;;;;;18.52;49.65;63912.84;5078215;28;20191;-77
2022/07/13 06:40:35;;;;;;;2.38;0.77;;;;;;;18.47;48.37;63912.25;5081179;28;20279;-75
2022/07/13 06:43:02;;;;;;;3.15;0.90;;;;;;;18.33;48.90;63896.13;5084849;28;20242;-74
2022/07/13 06:45:30;;;;;;;2.72;0.93;;;;;;;18.51;48.38;63916.44;5077903;28;20216;-77
2022/07/13 06:47:57;;;;;;;3.95;0.85;;;;;;;18.55;48.20;63913.38;5082167;28;20203;-76
2022/07/13 06:50:25;;;;;;;1.23;1.13;;;;;;;18.36;48.79;63894.09;5084189;28;20200;-76
2022/07/13 06:52:52;;;;;;;1.15;0.93;;;;;;;18.57;47.09;63918.03;5082382;28;20234;-77
2022/07/13 06:55:19;;;;;;;4.55;1.25;;;;;;;18.59;47.81;63920.13;5084637;28;20266;-76
2022/07/13 06:57:46;;;;;;;4.35;1.15;;;;;;;18.78;47.59;63942.00;5083794;28;20211;-76
2022/07/13 07:00:14;;;;;;;0.82;0.82;;;;;;;18.88;46.87;63947.28;5093780;28;20215;-76
2022/07/13 07:02:41;;;;;;;1.00;1.00;;;;;;;18.99;46.51;63964.41;5087540;28;20241;-77
2022/07/13 07:05:10;;;;;;;1.55;1.10;;;;;;;19.06;46.60;63969.13;5078139;28;20246;-75
2022/07/13 07:07:40;;;;;;;2.10;1.05;;;;;;;18.60;47.33;63923.78;5079334;28;20227;-74
2022/07/13 07:10:08;;;;;;;1.50;1.02;;;;;;;18.36;47.71;63896.66;5078550;28;20200;-74
2022/07/13 07:12:35;;;;;;;4.55;1.00;;;;;;;18.68;47.47;63931.56;5082354;28;20520;-75
2022/07/13 07:15:02;;;;;;;0.70;0.70;;;;;;;18.72;46.84;63935.75;5085252;28;20207;-75
2022/07/13 07:17:29;;;;;;;1.63;1.10;;;;;;;18.82;46.35;63943.59;5083282;28;20237;-75
2022/07/13 07:19:59;;;;;;;0.93;0.93;;;;;;;18.81;46.66;63950.28;5084971;28;20200;-75
2022/07/13 07:22:26;;;;;;;3.65;0.82;;;;;;;19.08;46.79;63975.84;5083887;28;20449;-76
2022/07/13 07:24:56;;;;;;;3.50;1.08;;;;;;;19.05;46.11;63970.16;5088906;28;20275;-74
2022/07/13 07:27:23;;;;;;;2.03;0.80;;;;;;;18.89;45.43;63953.47;5086669;28;20216;-77
2022/07/13 07:29:50;;;;;;;4.82;1.20;;;;;;;19.19;44.92;63982.16;5088858;28;20204;-78
2022/07/13 07:32:17;;;;;;;1.27;0.60;;;;;;;19.31;44.74;63997.78;5086726;28;20242;-76
2022/07/13 07:34:45;;;;;;;7.15;0.95;;;;;;;19.36;45.19;63999.91;5086216;28;20252;-76
2022/07/13 07:37:12;;;;;;;2.78;0.88;;;;;;;19.44;44.48;64011.38;5082440;28;20431;-76
2022/07/13 07:39:40;;;;;;;1.40;1.27;;;;;;;19.67;45.30;64029.13;5085912;28;20565;-76
2022/07/13 07:42:08;;;;;;;2.30;1.23;;;;;;;19.83;45.72;64045.84;5083256;28;20483;-77
2022/07/13 07:44:35;;;;;;;3.10;1.30;;;;;;;19.81;43.94;64048.91;5082099;28;20379;-77
2022/07/13 07:47:02;;;;;;;3.58;0.85;;;;;;;19.79;43.83;64041.66;5082986;28;20224;-74
2022/07/13 07:49:29;;;;;;;2.05;0.80;;;;;;;19.73;45.17;64045.72;5075826;28;20302;-75
2022/07/13 07:51:56;;;;;;;3.15;0.65;;;;;;;19.53;44.65;64017.63;5085935;28;20257;-75
2022/07/13 07:54:23;;;;;;;0.90;0.85;;;;;;;19.51;45.13;64018.66;5079634;28;20217;-75
2022/07/13 07:56:50;;;;;;;0.90;0.80;;;;;;;19.59;44.69;64026.47;5076877;28;20231;-76
2022/07/13 07:59:18;;;;;;;1.52;0.95;;;;;;;19.83;44.05;64051.00;5077480;28;20211;-74
2022/07/13 08:01:46;;;;;;;1.02;1.00;;;;;;;19.65;43.43;64030.16;5078321;28;20222;-75
2022/07/13 08:04:13;;;;;;;1.85;0.60;;;;;;;19.58;43.35;64025.44;5080796;28;20250;-74
2022/07/13 08:06:40;;;;;;;0.73;0.73;;;;;;;19.58;44.04;64019.75;5084972;28;20409;-74
2022/07/13 08:09:07;;;;;;;1.85;1.00;;;;;;;19.78;43.25;64045.75;5083888;28;20352;-75
2022/07/13 08:11:33;;;;;;;5.03;1.20;;;;;;;19.78;44.57;64040.59;5082576;28;20212;-77
2022/07/13 08:14:00;;;;;;;0.73;0.73;;;;;;;20.11;42.01;64082.78;5079591;28;20203;-78
2022/07/13 08:16:29;;;;;;;2.83;1.60;;;;;;;20.16;42.49;64082.84;5075913;28;20232;-76
2022/07/13 08:18:56;;;;;;;0.88;0.88;;;;;;;20.14;41.47;64081.25;5074876;28;20222;-74
2022/07/13 08:21:23;;;;;;;1.75;1.00;;;;;;;19.81;42.98;64049.41;5080598;28;20211;-74
2022/07/13 08:23:54;;;;;;;0.80;0.75;;;;;;;20.11;42.74;64077.63;5084580;28;20192;-73
2022/07/13 08:26:22;;;;;;;0.77;0.77;;;;;;;20.19;42.06;64086.00;5100292;28;20278;-72
2022/07/13 08:28:50;;;;;;;6.47;1.20;;;;;;;20.34;43.62;64104.22;5097470;28;20196;-74
2022/07/13 08:31:17;;;;;;;3.00;1.20;;;;;;;20.64;42.64;64136.06;5099304;28;20216;-74
2022/07/13 08:39:15;;;;;;;3.35;0.88;;;;;;;20.73;42.36;64139.22;5089521;28;20214;-75
2022/07/13 08:41:42;;;;;;;7.55;1.10;;;;;;;20.85;42.37;64152.28;5090863;28;20216;-78
2022/07/13 08:44:09;;;;;;;1.58;0.82;;;;;;;20.92;40.96;64162.19;5090478;28;20259;-78
2022/07/13 08:46:36;;;;;;;2.22;0.98;;;;;;;20.97;41.14;64166.88;5089877;28;20452;-78
2022/07/13 08:49:06;;;;;;;0.80;0.80;;;;;;;21.04;40.39;64174.19;5088712;28;20196;-77
2022/07/13 08:51:34;;;;;;;1.38;0.85;;;;;;;20.87;40.49;64156.44;5093553;28;20235;-75
2022/07/13 08:54:03;;;;;;;1.70;0.68;;;;;;;20.59;41.68;64133.44;5090540;28;20202;-77
2022/07/13 08:56:31;;;;;;;3.15;1.10;;;;;;;20.67;41.53;64139.19;5090701;28;20239;-78
2022/07/13 08:58:59;;;;;;;1.23;0.80;;;;;;;20.94;40.01;64166.34;5089836;28;20535;-78
2022/07/13 09:01:27;;;;;;;2.53;1.00;;;;;;;21.12;41.03;64179.97;5072527;28;20219;-78
2022/07/13 09:03:55;;;;;;;3.60;0.98;;;;;;;21.44;39.58;64215.97;5094741;28;20192;-78
2022/07/13 09:06:51;;;;;;;2.15;0.88;;;;;;;21.70;39.25;64246.25;5095451;28;20571;-78
2022/07/13 09:09:31;;;;;;;0.63;0.63;;;;;;;21.71;39.97;64244.72;5048595;28;20191;-76
2022/07/13 09:12:11;;;;;;;1.25;0.68;;;;;;;21.99;39.75;64273.47;5094310;28;20218;-77
2022/07/13 09:14:38;;;;;;;2.83;0.75;;;;;;;20.93;39.97;64160.13;5094278;28;20208;-75
2022/07/13 09:17:05;;;;;;;4.68;0.90;;;;;;;20.90;40.94;64162.69;5098671;28;20535;-76
2022/07/13 09:19:36;;;;;;;6.53;1.10;;;;;;;21.18;42.41;64194.00;5098192;28;20196;-78
2022/07/13 09:22:11;;;;;;;2.70;1.30;;;;;;;21.75;40.12;64248.91;5090620;28;20238;-78
2022/07/13 09:24:45;;;;;;;2.75;1.05;;;;;;;22.27;39.84;64307.91;5094683;28;20269;-77
2022/07/13 09:27:13;;;;;;;0.98;0.95;;;;;;;22.84;39.25;64364.94;5096482;28;20214;-78
2022/07/13 09:29:40;;;;;;;1.02;0.70;;;;;;;22.81;38.54;64359.19;5097241;28;20200;-78
2022/07/13 09:32:10;;;;;;;3.97;1.10;;;;;;;22.56;38.73;64335.13;5094868;28;20235;-75
2022/07/13 09:34:52;;;;;;;3.10;0.80;;;;;;;21.87;38.83;64260.94;5096236;28;20230;-77
2022/07/13 09:37:22;;;;;;;1.15;1.05;;;;;;;21.80;38.92;64253.59;5091935;28;20250;-76
2022/07/13 09:40:06;;;;;;;4.03;1.10;;;;;;;21.83;40.60;64256.22;5096953;28;20184;-78
2022/07/13 09:42:35;;;;;;;2.90;1.10;;;;;;;21.01;41.73;64171.06;5090325;28;20195;-76
2022/07/13 09:47:49;;;;;;;1.45;1.02;;;;;;;21.29;41.98;64197.72;5093157;28;20199;-75
2022/07/13 09:50:18;;;;;;;5.70;1.05;;;;;;;21.37;41.72;64211.78;5093296;28;20409;-78
2022/07/13 09:52:48;;;;;;;5.53;1.05;;;;;;;21.64;42.58;64242.56;5089825;28;20196;-76
2022/07/13 09:55:20;;;;;;;2.65;0.77;;;;;;;21.99;41.66;64276.06;5095921;28;20190;-77
2022/07/13 09:57:53;;;;;;;1.48;0.85;;;;;;;22.48;41.28;64327.28;5090785;28;20291;-77
2022/07/13 10:00:21;;;;;;;0.80;0.80;;;;;;;22.95;38.39;64378.00;5089784;28;20191;-77
2022/07/13 10:02:49;;;;;;;2.35;1.30;;;;;;;23.00;38.44;64378.03;5080690;28;20204;-76
2022/07/13 10:05:18;;;;;;;1.65;0.80;;;;;;;23.06;36.93;64384.81;5083713;28;20259;-78
2022/07/13 10:07:48;;;;;;;2.95;0.98;;;;;;;23.24;38.00;64405.72;5078621;28;20459;-76
2022/07/13 10:10:16;;;;;;;0.82;0.80;;;;;;;23.01;36.51;64382.19;5066305;28;20212;-77
2022/07/13 10:12:44;;;;;;;6.63;1.20;;;;;;;22.73;38.68;64347.72;5070033;28;20196;-77
2022/07/13 10:15:12;;;;;;;6.65;1.10;;;;;;;22.85;37.49;64362.84;5084500;28;20196;-77
2022/07/13 10:17:39;;;;;;;4.32;1.08;;;;;;;22.95;38.22;64373.31;5086361;28;20249;-78
2022/07/13 10:20:10;;;;;;;0.77;0.77;;;;;;;23.26;36.33;64405.22;5084644;28;20374;-76
2022/07/13 10:22:41;;;;;;;4.15;0.95;;;;;;;23.15;36.66;64399.44;5080258;28;20192;-78
2022/07/13 10:25:10;;;;;;;4.22;1.23;;;;;;;23.33;36.45;64415.66;5085868;28;20343;-79
2022/07/13 10:27:37;;;;;;;5.85;1.20;;;;;;;23.12;37.30;64393.69;5087377;28;20262;-77
2022/07/13 10:30:07;;;;;;;1.33;0.82;;;;;;;22.93;37.07;64366.03;5076268;28;20209;-78
2022/07/13 10:32:36;;;;;;;1.13;1.13;;;;;;;23.03;37.67;64383.75;5082642;28;20203;-79
2022/07/13 10:35:07;;;;;;;1.65;1.00;;;;;;;23.21;37.08;64400.50;5086171;28;20191;-79
2022/07/13 10:38:27;;;;;;;1.40;0.85;;;;;;;23.22;37.04;64404.16;5077948;28;20222;-78
2022/07/13 10:41:21;;;;;;;1.55;1.45;;;;;;;22.46;37.63;64327.78;4983473;28;20461;-77
2022/07/13 10:43:54;;;;;;;2.65;0.82;;;;;;;22.28;38.22;64305.84;4978069;28;20214;-76
2022/07/13 10:46:46;;;;;;;4.38;0.80;;;;;;;22.50;37.13;64331.44;5053594;28;20238;-78
2022/07/13 10:49:28;;;;;;;0.60;0.60;;;;;;;22.95;35.93;64380.59;5068960;28;20296;-77
2022/07/13 10:51:57;;;;;;;1.27;0.95;;;;;;;22.86;36.81;64366.50;5082260;28;20290;-76
2022/07/13 10:54:24;;;;;;;1.67;0.93;;;;;;;22.27;38.14;64305.31;5091835;28;20200;-76
2022/07/13 10:57:15;;;;;;;1.90;0.73;;;;;;;21.88;38.37;64254.19;5088500;28;20236;-76
2022/07/13 10:59:49;;;;;;;1.83;0.85;;;;;;;21.71;39.50;64247.31;5084113;28;20208;-77
2022/07/13 11:02:43;;;;;;;1.27;0.88;;;;;;;21.71;40.69;64247.31;5080809;28;20229;-75
2022/07/13 11:05:10;;;;;;;3.55;1.30;;;;;;;21.92;41.31;64270.81;5076947;28;20223;-77
2022/07/13 11:07:42;;;;;;;2.97;0.80;;;;;;;22.20;39.74;64297.47;5088806;28;20515;-77
2022/07/13 11:10:19;;;;;;;0.68;0.52;;;;;;;22.24;38.81;64297.00;5088143;28;20275;-77
2022/07/13 11:12:58;;;;;;;2.60;1.10;;;;;;;21.98;39.78;64274.50;5086565;28;20195;-78
2022/07/13 11:15:41;;;;;;;3.00;1.10;;;;;;;22.25;40.21;64303.22;5087709;28;20250;-78
2022/07/13 11:18:31;;;;;;;2.15;1.23;;;;;;;22.78;37.92;64358.66;5086458;28;20227;-77
2022/07/13 11:21:02;;;;;;;1.13;1.02;;;;;;;22.92;37.60;64367.06;5085262;28;20223;-78
2022/07/13 11:26:24;;;;;;;0.70;0.70;;;;;;;22.83;36.28;64363.88;5074664;28;20223;-78
2022/07/13 11:29:02;;;;;;;0.73;0.73;;;;;;;23.13;36.80;64396.81;5079671;28;20195;-77
2022/07/13 11:31:29;;;;;;;1.38;0.82;;;;;;;23.62;34.94;64443.44;5080905;28;20243;-78
2022/07/13 11:33:58;;;;;;;5.07;0.80;;;;;;;23.62;35.95;64443.44;5081552;28;20214;-76
2022/07/13 11:36:25;;;;;;;3.30;1.08;;;;;;;23.27;38.00;64409.38;5076088;28;20521;-74
2022/07/13 11:38:52;;;;;;;2.92;0.93;;;;;;;23.03;38.62;64386.34;5076569;28;20262;-75
2022/07/13 11:41:23;;;;;;;0.75;0.75;;;;;;;23.18;36.36;64399.97;5076020;28;20259;-77
2022/07/13 11:43:51;;;;;;;5.88;1.15;;;;;;;23.40;36.92;64422.47;5089638;28;20206;-77
2022/07/13 11:46:24;;;;;;;6.25;1.13;;;;;;;23.46;38.12;64428.75;5079011;28;20533;-78
2022/07/13 11:49:02;;;;;;;1.70;0.80;;;;;;;23.39;38.59;64424.56;5092594;28;20259;-76
2022/07/13 11:51:29;;;;;;;2.40;0.68;;;;;;;23.77;36.51;64461.72;5085921;28;20218;-76
2022/07/13 11:53:56;;;;;;;1.17;0.88;;;;;;;24.22;36.23;64508.31;5097429;28;20199;-74